sensor_id;sensor_type;location;lat;lon;timestamp;temperature;humidity
18281;DHT22;9266;51.132;17.062;2024-02-26T00:02:18;3.60;99.90
18281;DHT22;9266;51.132;17.062;2024-02-26T00:04:45;3.50;99.90
18281;DHT22;9266;51.132;17.062;2024-02-26T00:07:12;3.60;99.90
18281;DHT22;9266;51.132;17.062;2024-02-26T00:09:39;3.50;99.90
18281;DHT22;9266;51.132;17.062;2024-02-26T00:12:06;3.40;99.90
18281;DHT22;9266;51.132;17.062;2024-02-26T00:14:33;3.40;99.90
18281;DHT22;9266;51.132;17.062;2024-02-26T00:17:02;3.50;99.90
18281;DHT22;9266;51.132;17.062;2024-02-26T00:19:29;3.50;99.90
18281;DHT22;9266;51.132;17.062;2024-02-26T00:21:56;3.40;99.90
18281;DHT22;9266;51.132;17.062;2024-02-26T00:24:23;3.40;99.90
18281;DHT22;9266;51.132;17.062;2024-02-26T00:26:50;3.40;99.90
18281;DHT22;9266;51.132;17.062;2024-02-26T00:29:20;3.40;99.90
18281;DHT22;9266;51.132;17.062;2024-02-26T00:31:47;3.40;99.90
18281;DHT22;9266;51.132;17.062;2024-02-26T00:34:15;3.30;99.90
18281;DHT22;9266;51.132;17.062;2024-02-26T00:36:42;3.30;99.90
18281;DHT22;9266;51.132;17.062;2024-02-26T00:39:11;3.30;99.90
18281;DHT22;9266;51.132;17.062;2024-02-26T00:41:40;3.30;99.90
18281;DHT22;9266;51.132;17.062;2024-02-26T00:44:07;3.30;99.90
18281;DHT22;9266;51.132;17.062;2024-02-26T00:46:34;3.30;99.90
18281;DHT22;9266;51.132;17.062;2024-02-26T00:49:01;3.30;99.90
18281;DHT22;9266;51.132;17.062;2024-02-26T00:51:30;3.30;99.90
18281;DHT22;9266;51.132;17.062;2024-02-26T00:53:57;3.40;99.90
18281;DHT22;9266;51.132;17.062;2024-02-26T00:56:24;3.40;99.90
18281;DHT22;9266;51.132;17.062;2024-02-26T00:58:51;3.50;99.90
18281;DHT22;9266;51.132;17.062;2024-02-26T01:01:18;3.50;99.90
18281;DHT22;9266;51.132;17.062;2024-02-26T01:03:45;3.50;99.90
18281;DHT22;9266;51.132;17.062;2024-02-26T01:06:12;3.50;99.90
18281;DHT22;9266;51.132;17.062;2024-02-26T01:08:40;3.60;99.90
18281;DHT22;9266;51.132;17.062;2024-02-26T01:11:07;3.70;99.90
18281;DHT22;9266;51.132;17.062;2024-02-26T01:13:34;3.50;99.90
18281;DHT22;9266;51.132;17.062;2024-02-26T01:16:02;3.50;99.90
18281;DHT22;9266;51.132;17.062;2024-02-26T01:18:29;3.50;99.90
18281;DHT22;9266;51.132;17.062;2024-02-26T01:20:56;3.50;99.90
18281;DHT22;9266;51.132;17.062;2024-02-26T01:23:23;3.40;99.90
18281;DHT22;9266;51.132;17.062;2024-02-26T01:25:51;3.40;99.90
18281;DHT22;9266;51.132;17.062;2024-02-26T01:28:18;3.30;99.90
18281;DHT22;9266;51.132;17.062;2024-02-26T01:30:45;3.30;99.90
18281;DHT22;9266;51.132;17.062;2024-02-26T01:33:12;3.20;99.90
18281;DHT22;9266;51.132;17.062;2024-02-26T01:35:39;3.30;99.90
18281;DHT22;9266;51.132;17.062;2024-02-26T01:38:06;3.30;99.90
18281;DHT22;9266;51.132;17.062;2024-02-26T01:40:33;3.30;99.90
18281;DHT22;9266;51.132;17.062;2024-02-26T01:43:02;3.30;99.90
18281;DHT22;9266;51.132;17.062;2024-02-26T01:45:29;3.40;99.90
18281;DHT22;9266;51.132;17.062;2024-02-26T01:47:55;3.30;99.90
18281;DHT22;9266;51.132;17.062;2024-02-26T01:50:23;3.30;99.90
18281;DHT22;9266;51.132;17.062;2024-02-26T01:52:52;3.30;99.90
18281;DHT22;9266;51.132;17.062;2024-02-26T01:55:20;3.20;99.90
18281;DHT22;9266;51.132;17.062;2024-02-26T01:57:49;3.30;99.90
18281;DHT22;9266;51.132;17.062;2024-02-26T02:00:19;3.30;99.90
18281;DHT22;9266;51.132;17.062;2024-02-26T02:02:47;3.30;99.90
18281;DHT22;9266;51.132;17.062;2024-02-26T02:05:15;3.20;99.90
18281;DHT22;9266;51.132;17.062;2024-02-26T02:07:43;3.20;99.90
18281;DHT22;9266;51.132;17.062;2024-02-26T02:10:11;3.10;99.90
18281;DHT22;9266;51.132;17.062;2024-02-26T02:12:38;3.10;99.90
18281;DHT22;9266;51.132;17.062;2024-02-26T02:15:06;3.00;99.90
18281;DHT22;9266;51.132;17.062;2024-02-26T02:17:35;2.90;99.90
18281;DHT22;9266;51.132;17.062;2024-02-26T02:20:02;2.90;99.90
18281;DHT22;9266;51.132;17.062;2024-02-26T02:22:31;2.90;99.90
18281;DHT22;9266;51.132;17.062;2024-02-26T02:24:59;2.80;99.90
18281;DHT22;9266;51.132;17.062;2024-02-26T02:27:26;2.90;99.90
18281;DHT22;9266;51.132;17.062;2024-02-26T02:29:54;2.90;99.90
18281;DHT22;9266;51.132;17.062;2024-02-26T02:32:21;2.90;99.90
18281;DHT22;9266;51.132;17.062;2024-02-26T02:34:49;2.80;99.90
18281;DHT22;9266;51.132;17.062;2024-02-26T02:37:16;2.80;99.90
18281;DHT22;9266;51.132;17.062;2024-02-26T02:39:45;2.70;99.90
18281;DHT22;9266;51.132;17.062;2024-02-26T02:42:12;2.60;99.90
18281;DHT22;9266;51.132;17.062;2024-02-26T02:44:39;2.60;99.90
18281;DHT22;9266;51.132;17.062;2024-02-26T02:47:06;2.50;99.90
18281;DHT22;9266;51.132;17.062;2024-02-26T02:49:33;2.50;99.90
18281;DHT22;9266;51.132;17.062;2024-02-26T02:52:00;2.50;99.90
18281;DHT22;9266;51.132;17.062;2024-02-26T02:54:27;2.30;99.90
18281;DHT22;9266;51.132;17.062;2024-02-26T02:56:55;2.20;99.90
18281;DHT22;9266;51.132;17.062;2024-02-26T02:59:22;2.20;99.90
18281;DHT22;9266;51.132;17.062;2024-02-26T03:01:49;2.40;99.90
18281;DHT22;9266;51.132;17.062;2024-02-26T03:04:16;2.40;99.90
18281;DHT22;9266;51.132;17.062;2024-02-26T03:06:43;2.30;99.90
18281;DHT22;9266;51.132;17.062;2024-02-26T03:09:10;2.50;99.90
18281;DHT22;9266;51.132;17.062;2024-02-26T03:11:37;2.50;99.90
18281;DHT22;9266;51.132;17.062;2024-02-26T03:14:06;2.40;99.90
18281;DHT22;9266;51.132;17.062;2024-02-26T03:16:33;2.40;99.90
18281;DHT22;9266;51.132;17.062;2024-02-26T03:19:00;2.40;99.90
18281;DHT22;9266;51.132;17.062;2024-02-26T03:21:27;3.70;99.90
18281;DHT22;9266;51.132;17.062;2024-02-26T03:23:54;2.50;99.90
18281;DHT22;9266;51.132;17.062;2024-02-26T03:26:21;2.60;99.90
18281;DHT22;9266;51.132;17.062;2024-02-26T03:28:48;2.60;99.90
18281;DHT22;9266;51.132;17.062;2024-02-26T03:31:17;2.60;99.90
18281;DHT22;9266;51.132;17.062;2024-02-26T03:33:44;2.60;99.90
18281;DHT22;9266;51.132;17.062;2024-02-26T03:36:11;2.60;99.90
18281;DHT22;9266;51.132;17.062;2024-02-26T03:38:38;2.60;99.90
18281;DHT22;9266;51.132;17.062;2024-02-26T03:41:05;2.60;99.90
18281;DHT22;9266;51.132;17.062;2024-02-26T03:43:34;2.60;99.90
18281;DHT22;9266;51.132;17.062;2024-02-26T03:46:01;2.60;99.90
18281;DHT22;9266;51.132;17.062;2024-02-26T03:48:29;2.60;99.90
18281;DHT22;9266;51.132;17.062;2024-02-26T03:50:56;2.60;99.90
18281;DHT22;9266;51.132;17.062;2024-02-26T03:53:23;2.60;99.90
18281;DHT22;9266;51.132;17.062;2024-02-26T03:55:50;2.60;99.90
18281;DHT22;9266;51.132;17.062;2024-02-26T03:58:18;2.30;99.90
18281;DHT22;9266;51.132;17.062;2024-02-26T04:00:45;2.60;99.90
18281;DHT22;9266;51.132;17.062;2024-02-26T04:03:13;2.60;99.90
18281;DHT22;9266;51.132;17.062;2024-02-26T04:05:41;2.60;99.90
18281;DHT22;9266;51.132;17.062;2024-02-26T04:08:08;2.60;99.90
18281;DHT22;9266;51.132;17.062;2024-02-26T04:10:36;2.50;99.90
18281;DHT22;9266;51.132;17.062;2024-02-26T04:13:04;2.50;99.90
18281;DHT22;9266;51.132;17.062;2024-02-26T04:15:31;2.60;99.90
18281;DHT22;9266;51.132;17.062;2024-02-26T04:17:58;2.60;99.90
18281;DHT22;9266;51.132;17.062;2024-02-26T04:20:25;2.60;99.90
18281;DHT22;9266;51.132;17.062;2024-02-26T04:22:54;2.60;99.90
18281;DHT22;9266;51.132;17.062;2024-02-26T04:25:21;2.60;99.90
18281;DHT22;9266;51.132;17.062;2024-02-26T04:27:48;2.60;99.90
18281;DHT22;9266;51.132;17.062;2024-02-26T04:30:15;2.60;99.90
18281;DHT22;9266;51.132;17.062;2024-02-26T04:32:42;2.60;99.90
18281;DHT22;9266;51.132;17.062;2024-02-26T04:35:10;2.50;99.90
18281;DHT22;9266;51.132;17.062;2024-02-26T04:37:37;2.50;99.90
18281;DHT22;9266;51.132;17.062;2024-02-26T04:40:06;2.40;99.90
18281;DHT22;9266;51.132;17.062;2024-02-26T04:42:34;2.30;99.90
18281;DHT22;9266;51.132;17.062;2024-02-26T04:45:00;2.20;99.90
18281;DHT22;9266;51.132;17.062;2024-02-26T04:47:27;2.30;99.90
18281;DHT22;9266;51.132;17.062;2024-02-26T04:49:55;2.40;99.90
18281;DHT22;9266;51.132;17.062;2024-02-26T04:52:22;2.40;99.90
18281;DHT22;9266;51.132;17.062;2024-02-26T04:54:50;2.40;99.90
18281;DHT22;9266;51.132;17.062;2024-02-26T04:57:18;2.40;99.90
18281;DHT22;9266;51.132;17.062;2024-02-26T04:59:45;2.40;99.90
18281;DHT22;9266;51.132;17.062;2024-02-26T05:02:12;2.40;99.90
18281;DHT22;9266;51.132;17.062;2024-02-26T05:04:39;2.40;99.90
18281;DHT22;9266;51.132;17.062;2024-02-26T05:07:06;2.30;99.90
18281;DHT22;9266;51.132;17.062;2024-02-26T05:09:33;2.30;99.90
18281;DHT22;9266;51.132;17.062;2024-02-26T05:12:00;2.40;99.90
18281;DHT22;9266;51.132;17.062;2024-02-26T05:14:29;2.30;99.90
18281;DHT22;9266;51.132;17.062;2024-02-26T05:16:56;3.20;99.90
18281;DHT22;9266;51.132;17.062;2024-02-26T05:19:23;2.20;99.90
18281;DHT22;9266;51.132;17.062;2024-02-26T05:21:50;2.20;99.90
18281;DHT22;9266;51.132;17.062;2024-02-26T05:24:17;2.30;99.90
18281;DHT22;9266;51.132;17.062;2024-02-26T05:26:44;2.40;99.90
18281;DHT22;9266;51.132;17.062;2024-02-26T05:29:12;2.40;99.90
18281;DHT22;9266;51.132;17.062;2024-02-26T05:31:42;2.40;99.90
18281;DHT22;9266;51.132;17.062;2024-02-26T05:34:09;2.40;99.90
18281;DHT22;9266;51.132;17.062;2024-02-26T05:36:36;2.30;99.90
18281;DHT22;9266;51.132;17.062;2024-02-26T05:39:03;2.30;99.90
18281;DHT22;9266;51.132;17.062;2024-02-26T05:41:30;2.40;99.90
18281;DHT22;9266;51.132;17.062;2024-02-26T05:43:58;2.30;99.90
18281;DHT22;9266;51.132;17.062;2024-02-26T05:46:25;2.30;99.90
18281;DHT22;9266;51.132;17.062;2024-02-26T05:48:54;2.30;99.90
18281;DHT22;9266;51.132;17.062;2024-02-26T05:51:21;2.30;99.90
18281;DHT22;9266;51.132;17.062;2024-02-26T05:53:47;2.40;99.90
18281;DHT22;9266;51.132;17.062;2024-02-26T05:56:19;2.50;99.90
18281;DHT22;9266;51.132;17.062;2024-02-26T05:58:47;2.60;99.90
18281;DHT22;9266;51.132;17.062;2024-02-26T06:01:15;2.70;99.90
18281;DHT22;9266;51.132;17.062;2024-02-26T06:03:43;2.90;99.90
18281;DHT22;9266;51.132;17.062;2024-02-26T06:06:11;2.90;99.90
18281;DHT22;9266;51.132;17.062;2024-02-26T06:08:39;3.20;99.90
18281;DHT22;9266;51.132;17.062;2024-02-26T06:11:07;3.50;99.90
18281;DHT22;9266;51.132;17.062;2024-02-26T06:13:34;3.70;99.90
18281;DHT22;9266;51.132;17.062;2024-02-26T06:16:01;4.00;99.90
18281;DHT22;9266;51.132;17.062;2024-02-26T06:18:28;4.40;99.90
18281;DHT22;9266;51.132;17.062;2024-02-26T06:20:55;4.50;99.90
18281;DHT22;9266;51.132;17.062;2024-02-26T06:23:23;4.70;99.90
18281;DHT22;9266;51.132;17.062;2024-02-26T06:25:51;5.00;99.90
18281;DHT22;9266;51.132;17.062;2024-02-26T06:28:18;5.10;99.90
18281;DHT22;9266;51.132;17.062;2024-02-26T06:30:45;5.40;99.90
18281;DHT22;9266;51.132;17.062;2024-02-26T06:33:12;5.70;99.90
18281;DHT22;9266;51.132;17.062;2024-02-26T06:35:39;5.70;99.90
18281;DHT22;9266;51.132;17.062;2024-02-26T06:38:07;5.90;99.90
18281;DHT22;9266;51.132;17.062;2024-02-26T06:40:36;6.20;99.90
18281;DHT22;9266;51.132;17.062;2024-02-26T06:43:03;6.50;99.90
18281;DHT22;9266;51.132;17.062;2024-02-26T06:45:30;6.60;59.50
18281;DHT22;9266;51.132;17.062;2024-02-26T06:47:58;6.80;1.00
18281;DHT22;9266;51.132;17.062;2024-02-26T06:50:25;6.70;1.00
18281;DHT22;9266;51.132;17.062;2024-02-26T06:52:52;6.70;1.00
18281;DHT22;9266;51.132;17.062;2024-02-26T06:55:19;6.60;1.00
18281;DHT22;9266;51.132;17.062;2024-02-26T06:57:47;6.80;1.00
18281;DHT22;9266;51.132;17.062;2024-02-26T07:00:15;6.40;1.00
18281;DHT22;9266;51.132;17.062;2024-02-26T07:02:42;6.40;1.00
18281;DHT22;9266;51.132;17.062;2024-02-26T07:05:09;6.80;1.00
18281;DHT22;9266;51.132;17.062;2024-02-26T07:07:36;7.80;1.00
18281;DHT22;9266;51.132;17.062;2024-02-26T07:10:04;7.90;1.00
18281;DHT22;9266;51.132;17.062;2024-02-26T07:12:32;8.50;99.90
18281;DHT22;9266;51.132;17.062;2024-02-26T07:15:00;9.00;1.00
18281;DHT22;9266;51.132;17.062;2024-02-26T07:17:28;9.10;1.00
18281;DHT22;9266;51.132;17.062;2024-02-26T07:19:55;9.30;1.00
18281;DHT22;9266;51.132;17.062;2024-02-26T07:22:22;9.20;99.90
18281;DHT22;9266;51.132;17.062;2024-02-26T07:24:51;8.80;1.00
18281;DHT22;9266;51.132;17.062;2024-02-26T07:27:18;9.00;1.00
18281;DHT22;9266;51.132;17.062;2024-02-26T07:29:46;9.50;1.00
18281;DHT22;9266;51.132;17.062;2024-02-26T07:32:15;9.40;1.00
18281;DHT22;9266;51.132;17.062;2024-02-26T07:34:42;9.10;37.60
18281;DHT22;9266;51.132;17.062;2024-02-26T07:37:10;9.00;99.90
18281;DHT22;9266;51.132;17.062;2024-02-26T07:39:37;9.20;99.90
18281;DHT22;9266;51.132;17.062;2024-02-26T07:42:04;9.30;1.00
18281;DHT22;9266;51.132;17.062;2024-02-26T07:44:32;9.60;1.00
18281;DHT22;9266;51.132;17.062;2024-02-26T07:46:59;9.60;1.00
18281;DHT22;9266;51.132;17.062;2024-02-26T07:49:27;9.60;1.00
18281;DHT22;9266;51.132;17.062;2024-02-26T07:51:54;9.90;1.00
18281;DHT22;9266;51.132;17.062;2024-02-26T07:54:23;10.10;99.90
18281;DHT22;9266;51.132;17.062;2024-02-26T07:56:50;10.30;99.90
18281;DHT22;9266;51.132;17.062;2024-02-26T07:59:18;10.60;1.00
18281;DHT22;9266;51.132;17.062;2024-02-26T08:01:49;10.90;1.00
18281;DHT22;9266;51.132;17.062;2024-02-26T08:04:16;11.30;1.00
18281;DHT22;9266;51.132;17.062;2024-02-26T08:06:45;11.30;1.00
18281;DHT22;9266;51.132;17.062;2024-02-26T08:09:12;11.30;1.00
18281;DHT22;9266;51.132;17.062;2024-02-26T08:11:39;11.50;1.00
18281;DHT22;9266;51.132;17.062;2024-02-26T08:14:06;11.60;1.00
18281;DHT22;9266;51.132;17.062;2024-02-26T08:16:33;11.70;1.00
18281;DHT22;9266;51.132;17.062;2024-02-26T08:19:00;11.40;1.00
18281;DHT22;9266;51.132;17.062;2024-02-26T08:21:27;11.10;1.00
18281;DHT22;9266;51.132;17.062;2024-02-26T08:23:55;11.30;1.00
18281;DHT22;9266;51.132;17.062;2024-02-26T08:26:22;11.30;1.00
18281;DHT22;9266;51.132;17.062;2024-02-26T08:28:49;11.30;1.00
18281;DHT22;9266;51.132;17.062;2024-02-26T08:31:17;11.20;1.00
18281;DHT22;9266;51.132;17.062;2024-02-26T08:33:44;11.30;1.00
18281;DHT22;9266;51.132;17.062;2024-02-26T08:36:11;11.20;1.00
18281;DHT22;9266;51.132;17.062;2024-02-26T08:38:39;11.00;1.00
18281;DHT22;9266;51.132;17.062;2024-02-26T08:41:07;11.00;1.00
18281;DHT22;9266;51.132;17.062;2024-02-26T08:43:34;10.90;1.00
18281;DHT22;9266;51.132;17.062;2024-02-26T08:46:01;11.00;1.00
18281;DHT22;9266;51.132;17.062;2024-02-26T08:48:28;11.00;1.00
18281;DHT22;9266;51.132;17.062;2024-02-26T08:50:55;10.90;1.00
18281;DHT22;9266;51.132;17.062;2024-02-26T08:53:22;11.00;1.00
18281;DHT22;9266;51.132;17.062;2024-02-26T08:55:49;11.00;1.00
18281;DHT22;9266;51.132;17.062;2024-02-26T08:58:18;10.90;1.00
18281;DHT22;9266;51.132;17.062;2024-02-26T09:00:46;10.80;1.00
18281;DHT22;9266;51.132;17.062;2024-02-26T09:03:13;10.70;1.00
18281;DHT22;9266;51.132;17.062;2024-02-26T09:05:40;10.70;1.00
18281;DHT22;9266;51.132;17.062;2024-02-26T09:08:07;10.80;1.00
18281;DHT22;9266;51.132;17.062;2024-02-26T09:10:34;10.80;1.00
18281;DHT22;9266;51.132;17.062;2024-02-26T09:13:01;10.90;1.00
18281;DHT22;9266;51.132;17.062;2024-02-26T09:15:29;11.10;1.00
18281;DHT22;9266;51.132;17.062;2024-02-26T09:17:56;11.10;1.00
18281;DHT22;9266;51.132;17.062;2024-02-26T09:20:23;11.30;1.00
18281;DHT22;9266;51.132;17.062;2024-02-26T09:22:50;11.30;1.00
18281;DHT22;9266;51.132;17.062;2024-02-26T09:25:18;11.40;1.00
18281;DHT22;9266;51.132;17.062;2024-02-26T09:27:46;11.60;1.00
18281;DHT22;9266;51.132;17.062;2024-02-26T09:30:13;11.60;1.00
18281;DHT22;9266;51.132;17.062;2024-02-26T09:32:46;11.80;1.00
18281;DHT22;9266;51.132;17.062;2024-02-26T09:35:14;11.90;1.00
18281;DHT22;9266;51.132;17.062;2024-02-26T09:37:41;12.00;1.00
18281;DHT22;9266;51.132;17.062;2024-02-26T09:40:10;12.10;1.00
18281;DHT22;9266;51.132;17.062;2024-02-26T09:42:43;12.20;1.00
18281;DHT22;9266;51.132;17.062;2024-02-26T09:45:16;12.20;1.00
18281;DHT22;9266;51.132;17.062;2024-02-26T09:47:48;12.30;1.00
18281;DHT22;9266;51.132;17.062;2024-02-26T09:50:17;12.40;1.00
18281;DHT22;9266;51.132;17.062;2024-02-26T09:52:48;12.50;1.00
18281;DHT22;9266;51.132;17.062;2024-02-26T09:55:16;12.30;1.00
18281;DHT22;9266;51.132;17.062;2024-02-26T09:57:45;12.30;1.00
18281;DHT22;9266;51.132;17.062;2024-02-26T10:00:17;12.30;1.00
18281;DHT22;9266;51.132;17.062;2024-02-26T10:02:47;12.60;1.00
18281;DHT22;9266;51.132;17.062;2024-02-26T10:05:17;12.70;1.00
18281;DHT22;9266;51.132;17.062;2024-02-26T10:07:45;12.70;1.00
18281;DHT22;9266;51.132;17.062;2024-02-26T10:10:12;12.80;1.00
18281;DHT22;9266;51.132;17.062;2024-02-26T10:12:40;12.70;1.00
18281;DHT22;9266;51.132;17.062;2024-02-26T10:15:08;12.80;1.00
18281;DHT22;9266;51.132;17.062;2024-02-26T10:17:35;12.90;1.00
18281;DHT22;9266;51.132;17.062;2024-02-26T10:20:15;12.90;1.00
18281;DHT22;9266;51.132;17.062;2024-02-26T10:22:43;12.90;1.00
18281;DHT22;9266;51.132;17.062;2024-02-26T10:25:10;13.00;1.00
18281;DHT22;9266;51.132;17.062;2024-02-26T10:27:37;13.00;1.00
18281;DHT22;9266;51.132;17.062;2024-02-26T10:30:16;13.00;1.00
18281;DHT22;9266;51.132;17.062;2024-02-26T10:32:44;12.90;1.00
18281;DHT22;9266;51.132;17.062;2024-02-26T10:35:11;13.00;1.00
18281;DHT22;9266;51.132;17.062;2024-02-26T10:37:40;13.00;1.00
18281;DHT22;9266;51.132;17.062;2024-02-26T10:40:10;12.90;1.00
18281;DHT22;9266;51.132;17.062;2024-02-26T10:42:37;13.00;1.00
18281;DHT22;9266;51.132;17.062;2024-02-26T10:45:05;13.00;1.00
18281;DHT22;9266;51.132;17.062;2024-02-26T10:47:32;13.00;1.00
18281;DHT22;9266;51.132;17.062;2024-02-26T10:50:01;12.90;1.00
18281;DHT22;9266;51.132;17.062;2024-02-26T10:52:31;12.90;1.00
18281;DHT22;9266;51.132;17.062;2024-02-26T10:55:02;12.90;1.00
18281;DHT22;9266;51.132;17.062;2024-02-26T10:57:33;13.00;1.00
18281;DHT22;9266;51.132;17.062;2024-02-26T11:00:00;13.00;1.00
18281;DHT22;9266;51.132;17.062;2024-02-26T11:02:32;13.00;1.00
18281;DHT22;9266;51.132;17.062;2024-02-26T11:05:00;13.10;1.00
18281;DHT22;9266;51.132;17.062;2024-02-26T11:07:30;13.20;1.00
18281;DHT22;9266;51.132;17.062;2024-02-26T11:10:00;13.10;1.00
18281;DHT22;9266;51.132;17.062;2024-02-26T11:12:28;13.20;1.00
18281;DHT22;9266;51.132;17.062;2024-02-26T11:14:56;13.10;1.00
18281;DHT22;9266;51.132;17.062;2024-02-26T11:17:27;13.30;1.00
18281;DHT22;9266;51.132;17.062;2024-02-26T11:19:57;13.70;1.00
18281;DHT22;9266;51.132;17.062;2024-02-26T11:22:25;13.40;1.00
18281;DHT22;9266;51.132;17.062;2024-02-26T11:24:53;13.50;1.00
18281;DHT22;9266;51.132;17.062;2024-02-26T11:27:27;13.60;1.00
18281;DHT22;9266;51.132;17.062;2024-02-26T11:29:57;13.60;1.00
18281;DHT22;9266;51.132;17.062;2024-02-26T11:32:26;13.60;1.00
18281;DHT22;9266;51.132;17.062;2024-02-26T11:34:56;13.60;1.00
18281;DHT22;9266;51.132;17.062;2024-02-26T11:37:23;13.50;1.00
18281;DHT22;9266;51.132;17.062;2024-02-26T11:39:51;13.50;1.00
18281;DHT22;9266;51.132;17.062;2024-02-26T11:42:24;13.60;1.00
18281;DHT22;9266;51.132;17.062;2024-02-26T11:44:52;13.60;1.00
18281;DHT22;9266;51.132;17.062;2024-02-26T11:47:20;13.60;1.00
18281;DHT22;9266;51.132;17.062;2024-02-26T11:49:48;13.80;1.00
18281;DHT22;9266;51.132;17.062;2024-02-26T11:52:15;13.80;1.00
18281;DHT22;9266;51.132;17.062;2024-02-26T11:54:46;13.90;1.00
18281;DHT22;9266;51.132;17.062;2024-02-26T11:57:21;13.90;1.00
18281;DHT22;9266;51.132;17.062;2024-02-26T11:59:50;14.00;1.00
18281;DHT22;9266;51.132;17.062;2024-02-26T12:05:24;14.10;1.00
18281;DHT22;9266;51.132;17.062;2024-02-26T12:07:55;14.10;1.00
18281;DHT22;9266;51.132;17.062;2024-02-26T12:10:27;14.10;1.00
18281;DHT22;9266;51.132;17.062;2024-02-26T12:12:58;14.10;1.00
18281;DHT22;9266;51.132;17.062;2024-02-26T12:15:32;14.10;1.00
18281;DHT22;9266;51.132;17.062;2024-02-26T12:18:02;15.60;1.00
18281;DHT22;9266;51.132;17.062;2024-02-26T12:20:29;14.40;1.00
18281;DHT22;9266;51.132;17.062;2024-02-26T12:22:56;14.40;1.00
18281;DHT22;9266;51.132;17.062;2024-02-26T12:25:25;14.40;1.00
18281;DHT22;9266;51.132;17.062;2024-02-26T12:27:53;14.40;1.00
18281;DHT22;9266;51.132;17.062;2024-02-26T12:30:20;14.40;1.00
18281;DHT22;9266;51.132;17.062;2024-02-26T12:32:50;14.40;1.00
18281;DHT22;9266;51.132;17.062;2024-02-26T12:35:17;14.30;1.00
18281;DHT22;9266;51.132;17.062;2024-02-26T12:37:45;14.30;1.00
18281;DHT22;9266;51.132;17.062;2024-02-26T12:40:13;14.30;1.00
18281;DHT22;9266;51.132;17.062;2024-02-26T12:42:40;14.30;1.00
18281;DHT22;9266;51.132;17.062;2024-02-26T12:45:08;14.20;1.00
18281;DHT22;9266;51.132;17.062;2024-02-26T12:47:37;14.20;1.00
18281;DHT22;9266;51.132;17.062;2024-02-26T12:50:07;14.50;1.00
18281;DHT22;9266;51.132;17.062;2024-02-26T12:52:37;14.40;1.00
18281;DHT22;9266;51.132;17.062;2024-02-26T12:55:05;14.40;1.00
18281;DHT22;9266;51.132;17.062;2024-02-26T12:57:34;14.50;1.00
18281;DHT22;9266;51.132;17.062;2024-02-26T13:00:03;14.50;1.00
18281;DHT22;9266;51.132;17.062;2024-02-26T13:02:32;14.50;1.00
18281;DHT22;9266;51.132;17.062;2024-02-26T13:05:00;14.50;1.00
18281;DHT22;9266;51.132;17.062;2024-02-26T13:07:30;14.50;1.00
18281;DHT22;9266;51.132;17.062;2024-02-26T13:09:57;14.60;1.00
18281;DHT22;9266;51.132;17.062;2024-02-26T13:12:24;14.80;1.00
18281;DHT22;9266;51.132;17.062;2024-02-26T13:14:59;14.70;1.00
18281;DHT22;9266;51.132;17.062;2024-02-26T13:17:26;14.80;1.00
18281;DHT22;9266;51.132;17.062;2024-02-26T13:19:53;14.90;1.00
18281;DHT22;9266;51.132;17.062;2024-02-26T13:22:21;14.90;1.00
18281;DHT22;9266;51.132;17.062;2024-02-26T13:24:55;14.90;1.00
18281;DHT22;9266;51.132;17.062;2024-02-26T13:27:22;14.90;1.00
18281;DHT22;9266;51.132;17.062;2024-02-26T13:30:05;14.90;1.00
18281;DHT22;9266;51.132;17.062;2024-02-26T13:32:33;14.70;1.00
18281;DHT22;9266;51.132;17.062;2024-02-26T13:35:08;14.60;1.00
18281;DHT22;9266;51.132;17.062;2024-02-26T13:37:36;14.60;1.00
18281;DHT22;9266;51.132;17.062;2024-02-26T13:40:09;14.60;1.00
18281;DHT22;9266;51.132;17.062;2024-02-26T13:42:36;14.60;1.00
18281;DHT22;9266;51.132;17.062;2024-02-26T13:45:05;14.70;1.00
18281;DHT22;9266;51.132;17.062;2024-02-26T13:47:33;14.70;1.00
18281;DHT22;9266;51.132;17.062;2024-02-26T13:50:00;14.70;1.00
18281;DHT22;9266;51.132;17.062;2024-02-26T13:52:27;14.70;1.00
18281;DHT22;9266;51.132;17.062;2024-02-26T13:54:54;14.80;1.00
18281;DHT22;9266;51.132;17.062;2024-02-26T13:57:23;14.70;1.00
18281;DHT22;9266;51.132;17.062;2024-02-26T13:59:50;14.60;1.00
18281;DHT22;9266;51.132;17.062;2024-02-26T14:02:17;14.20;1.00
18281;DHT22;9266;51.132;17.062;2024-02-26T14:04:44;14.40;1.00
18281;DHT22;9266;51.132;17.062;2024-02-26T14:07:12;14.30;1.00
18281;DHT22;9266;51.132;17.062;2024-02-26T14:09:39;14.40;1.00
18281;DHT22;9266;51.132;17.062;2024-02-26T14:12:06;14.30;1.00
18281;DHT22;9266;51.132;17.062;2024-02-26T14:14:34;14.20;1.00
18281;DHT22;9266;51.132;17.062;2024-02-26T14:17:04;14.20;1.00
18281;DHT22;9266;51.132;17.062;2024-02-26T14:19:31;14.10;1.00
18281;DHT22;9266;51.132;17.062;2024-02-26T14:21:58;14.10;1.00
18281;DHT22;9266;51.132;17.062;2024-02-26T14:24:25;13.30;1.00
18281;DHT22;9266;51.132;17.062;2024-02-26T14:26:52;13.90;1.00
18281;DHT22;9266;51.132;17.062;2024-02-26T14:29:19;13.90;1.00
18281;DHT22;9266;51.132;17.062;2024-02-26T14:31:47;13.90;1.00
18281;DHT22;9266;51.132;17.062;2024-02-26T14:34:14;13.90;1.00
18281;DHT22;9266;51.132;17.062;2024-02-26T14:36:44;13.90;1.00
18281;DHT22;9266;51.132;17.062;2024-02-26T14:39:11;14.20;1.00
18281;DHT22;9266;51.132;17.062;2024-02-26T14:41:38;13.80;1.00
18281;DHT22;9266;51.132;17.062;2024-02-26T14:44:05;13.80;1.00
18281;DHT22;9266;51.132;17.062;2024-02-26T14:46:32;13.70;1.00
18281;DHT22;9266;51.132;17.062;2024-02-26T14:49:00;13.70;1.00
18281;DHT22;9266;51.132;17.062;2024-02-26T14:51:28;13.70;1.00
18281;DHT22;9266;51.132;17.062;2024-02-26T14:53:55;13.60;1.00
18281;DHT22;9266;51.132;17.062;2024-02-26T14:56:22;13.60;1.00
18281;DHT22;9266;51.132;17.062;2024-02-26T14:58:49;13.60;1.00
18281;DHT22;9266;51.132;17.062;2024-02-26T15:01:16;13.60;1.00
18281;DHT22;9266;51.132;17.062;2024-02-26T15:03:43;13.60;1.00
18281;DHT22;9266;51.132;17.062;2024-02-26T15:06:11;13.60;1.00
18281;DHT22;9266;51.132;17.062;2024-02-26T15:08:38;13.60;1.00
18281;DHT22;9266;51.132;17.062;2024-02-26T15:11:05;13.60;1.00
18281;DHT22;9266;51.132;17.062;2024-02-26T15:13:33;13.60;1.00
18281;DHT22;9266;51.132;17.062;2024-02-26T15:16:00;13.60;1.00
18281;DHT22;9266;51.132;17.062;2024-02-26T15:18:27;13.60;1.00
18281;DHT22;9266;51.132;17.062;2024-02-26T15:20:54;13.50;1.00
18281;DHT22;9266;51.132;17.062;2024-02-26T15:23:22;13.50;1.00
18281;DHT22;9266;51.132;17.062;2024-02-26T15:25:49;13.50;1.00
18281;DHT22;9266;51.132;17.062;2024-02-26T15:28:16;13.50;1.00
18281;DHT22;9266;51.132;17.062;2024-02-26T15:30:43;13.50;1.00
18281;DHT22;9266;51.132;17.062;2024-02-26T15:33:11;13.50;1.00
18281;DHT22;9266;51.132;17.062;2024-02-26T15:35:39;13.40;1.00
18281;DHT22;9266;51.132;17.062;2024-02-26T15:38:07;13.40;1.00
18281;DHT22;9266;51.132;17.062;2024-02-26T15:40:36;13.50;1.00
18281;DHT22;9266;51.132;17.062;2024-02-26T15:43:03;13.40;1.00
18281;DHT22;9266;51.132;17.062;2024-02-26T15:45:30;13.40;1.00
18281;DHT22;9266;51.132;17.062;2024-02-26T15:47:59;13.40;1.00
18281;DHT22;9266;51.132;17.062;2024-02-26T15:50:26;13.40;1.00
18281;DHT22;9266;51.132;17.062;2024-02-26T15:52:53;13.80;1.00
18281;DHT22;9266;51.132;17.062;2024-02-26T15:55:20;13.30;1.00